CheckWX is a tool to help pilots better visualize weather data.  It is not intended as a substitute for an official pre-flight weather briefing.

12:24:45 UTC

KBDG METAR
Blanding Municipal Airport
Blanding, Utah, USA
Current

30 mins ago

KBDG 181155Z AUTO 08005KT 10SM M05/M05 A2989 RMK AO1 T10501051 11041 21052
Observed
Feb-18 @ 11:55 UTC
Wind
  • 080° at 5 KTS
Visibility
10 SM
Temperature
-5°C / 23°F
Dewpoint
-5°C / 23°F
Humidity
100%
Altimeter
29.89" Hg
Pressure
1012.22 hPa
Previous

50 mins ago

KBDG 181135Z AUTO 07005KT 10SM M05/M05 A2989 RMK AO1 T10491050
Observed
Feb-18 @ 11:35 UTC
Wind
  • 070° at 5 KTS
Visibility
10 SM
Temperature
-5°C / 23°F
Dewpoint
-5°C / 23°F
Humidity
100%
Altimeter
29.89" Hg
Pressure
1012.22 hPa
Previous

1 hour ago

KBDG 181115Z AUTO 08005KT 7SM M05/M05 A2990 RMK AO1 T10461047
Observed
Feb-18 @ 11:15 UTC
Wind
  • 080° at 5 KTS
Visibility
7 SM
Temperature
-5°C / 23°F
Dewpoint
-5°C / 23°F
Humidity
100%
Altimeter
29.9" Hg
Pressure
1012.52 hPa